Flight Track Log - Related Links

Times and Time Zones

All times are in EDT time to prevent confusion due to time zone crossing. See the DAL622 flight status page for this flight to view local times or setup timezone preferences in your user account.

Time Position Orientation Groundspeed Altitude Reporting Facility
EDT Latitude Longitude Course Direction KTS MPH feet Rate Location/Type
Mon 03:03:47 AM 35.7310 140.4000 150° Southeast 194 223 1,700  Level FlightAware ADS-B
Mon 03:04:17 AM 35.7090 140.4160 149° Southeast 191 220 3,100 2,300 Climbing FlightAware ADS-B
Mon 03:04:47 AM 35.6830 140.4340 151° Southeast 214 246 4,000 1,418 Climbing FlightAware ADS-B
Mon 03:05:12 AM 35.6630 140.4480 150° Southeast 243 280 4,400 1,440 Climbing FlightAware ADS-B
Mon 03:05:37 AM 35.6380 140.4670 148° Southeast 260 299 5,200 2,182 Climbing FlightAware ADS-B
Mon 03:06:07 AM 35.6070 140.4890 150° Southeast 274 315 6,400 2,267 Climbing FlightAware ADS-B
Mon 03:06:22 AM 35.5880 140.5020 151° Southeast 277 319 6,900 2,160 Climbing FlightAware ADS-B
Mon 03:06:32 AM 35.5750 140.5060 166° South 281 323 7,300 2,400 Climbing FlightAware ADS-B
Mon 03:06:52 AM 35.5490 140.5000 191° South 280 322 8,100 2,229 Climbing FlightAware ADS-B
Mon 03:07:07 AM 35.5360 140.4860 221° Southwest 278 320 8,600 2,400 Climbing FlightAware ADS-B
Mon 03:07:17 AM 35.5290 140.4690 243° Southwest 280 322 9,100 2,700 Climbing FlightAware ADS-B
Mon 03:07:27 AM 35.5270 140.4540 261° West 283 326 9,500 2,400 Climbing FlightAware ADS-B
Mon 03:07:47 AM 35.5340 140.4250 287° West 289 333 10,300 2,229 Climbing FlightAware ADS-B
Mon 03:08:02 AM 35.5460 140.4050 306° West 296 341 10,800 1,650 Climbing FlightAware ADS-B
Mon 03:08:27 AM 35.5720 140.3840 327° Northwest 322 371 11,400 1,200 Climbing FlightAware ADS-B
Mon 03:09:12 AM 35.6430 140.3440 335° Northwest 364 419 12,200 1,125 Climbing FlightAware ADS-B
Mon 03:09:47 AM 35.6970 140.3110 334° Northwest 392 451 12,900 900 Climbing FlightAware ADS-B
Mon 03:10:32 AM 35.7670 140.2590 329° Northwest 401 461 13,400 267 Climbing FlightAware ADS-B
Mon 03:11:17 AM 35.8410 140.2010 328° Northwest 400 460 13,300 -71 Descending FlightAware ADS-B
Mon 03:11:57 AM 35.9040 140.1500 327° Northwest 401 461 13,300 733 Level FlightAware ADS-B
Mon 03:12:47 AM 35.9750 140.0930 327° Northwest 403 464 14,400 1,080 Climbing FlightAware ADS-B
Mon 03:13:37 AM 36.0590 140.0270 328° Northwest 400 460 15,100 1,400 Climbing FlightAware ADS-B
Mon 03:14:17 AM 36.1240 139.9760 328° Northwest 400 460 16,500 2,047 Climbing FlightAware ADS-B
Mon 03:15:02 AM 36.1950 139.9240 329° Northwest 424 488 18,000 2,143 Climbing FlightAware ADS-B
Mon 03:15:27 AM 36.2490 139.9160 353° North 437 503 19,000 2,182 Climbing FlightAware ADS-B
Mon 03:15:57 AM 36.3100 139.9230 North 443 510 20,000 2,057 Climbing FlightAware ADS-B
Mon 03:16:37 AM 36.3930 139.9440 12° North 461 531 21,400 1,875 Climbing FlightAware ADS-B
Mon 03:17:17 AM 36.4730 139.9630 11° North 461 531 22,500 1,575 Climbing FlightAware ADS-B
Mon 03:17:57 AM 36.5670 139.9850 11° North 486 559 23,500 1,364 Climbing FlightAware ADS-B
Mon 03:19:07 AM 36.7180 140.0190 10° North 490 564 25,000 750 Climbing FlightAware ADS-B
Mon 03:19:57 AM 36.8400 140.0460 10° North 494 568 25,000  Level FlightAware ADS-B
Mon 03:20:37 AM 36.9230 140.0650 10° North 487 560 25,000 150 Level FlightAware ADS-B
Mon 03:21:17 AM 37.0110 140.0860 11° North 490 564 25,200 880 Climbing FlightAware ADS-B
Mon 03:21:52 AM 37.0900 140.1040 10° North 505 581 26,100 1,667 Climbing FlightAware ADS-B
Mon 03:22:47 AM 37.2220 140.1350 11° North 507 583 27,700 1,771 Climbing FlightAware ADS-B
Mon 03:23:37 AM 37.3380 140.1610 10° North 522 601 29,200 1,832 Climbing FlightAware ADS-B
Mon 03:24:22 AM 37.4520 140.1880 11° North 523 602 30,600 1,271 Climbing FlightAware ADS-B
Mon 03:25:02 AM 37.5460 140.2120 11° North 525 604 31,000 988 Climbing FlightAware ADS-B
Mon 03:25:47 AM 37.6570 140.2440 13° North 529 609 32,000 1,412 Climbing FlightAware ADS-B
Mon 03:26:27 AM 37.7510 140.2700 12° North 525 604 33,000 750 Climbing FlightAware ADS-B
Mon 03:27:07 AM 37.8470 140.2970 13° North 527 606 33,000  Level FlightAware ADS-B
Mon 03:27:52 AM 37.9540 140.3270 12° North 530 610 33,000  Level FlightAware ADS-B
Mon 03:30:00 AM 38.2359 140.4233 12° North  Level FlightAware Approximate
Mon 03:31:00 AM 38.3531 140.4104 303° West  Level FlightAware Approximate
Mon 03:32:00 AM 38.4606 140.3749 14° North  Level FlightAware Approximate
Mon 03:33:00 AM 38.5923 140.4174 14° North  Level FlightAware Approximate
Mon 03:34:00 AM 38.7240 140.4601 14° North  Level FlightAware Approximate
Mon 03:35:00 AM 38.8558 140.5029 14° North  Level FlightAware Approximate
Mon 03:36:00 AM 38.9874 140.5459 14° North  Level FlightAware Approximate
Mon 03:36:37 AM 39.1900 140.6780 14° North 525 604 33,000  Level FlightAware ADS-B
Mon 03:39:00 AM 39.5110 140.7332 North  Level FlightAware Approximate
Mon 03:40:00 AM 39.6456 140.7565 North  Level FlightAware Approximate
Mon 03:40:42 AM 39.7760 140.8490 North 528 608 33,000  Level FlightAware ADS-B
Mon 03:41:22 AM 39.8750 140.8780 13° North 528 608 33,000  Level FlightAware ADS-B
Mon 03:42:02 AM 39.9730 140.9070 13° North 529 609 33,000  Level FlightAware ADS-B
Mon 03:42:47 AM 40.0790 140.9380 13° North 525 604 33,000  Level FlightAware ADS-B
Mon 03:43:27 AM 40.1780 140.9680 13° North 527 606 33,000  Level FlightAware ADS-B
Mon 03:44:12 AM 40.2830 140.9990 13° North 529 609 33,000  Level FlightAware ADS-B
Mon 03:44:52 AM 40.3820 141.0290 13° North 530 610 33,000  Level FlightAware ADS-B
Mon 03:45:27 AM 40.4590 141.0520 13° North 531 611 33,000  Level FlightAware ADS-B
Mon 03:46:17 AM 40.5900 141.0910 13° North 541 623 33,000  Level FlightAware ADS-B
Mon 03:47:02 AM 40.7000 141.1240 13° North 543 625 33,000  Level FlightAware ADS-B
Mon 03:47:42 AM 40.7990 141.1540 13° North 543 625 33,000  Level FlightAware ADS-B
Mon 03:48:27 AM 40.9070 141.1850 12° North 544 626 33,000  Level FlightAware ADS-B
Mon 03:49:07 AM 41.0080 141.2120 11° North 544 626 33,000  Level FlightAware ADS-B
Mon 03:49:47 AM 41.1060 141.2390 12° North 545 627 33,000  Level FlightAware ADS-B
Mon 03:50:22 AM 41.1880 141.2610 11° North 545 627 33,000  Level FlightAware ADS-B
Mon 03:51:12 AM 41.3150 141.2960 12° North 543 625 33,000  Level FlightAware ADS-B
Mon 03:51:52 AM 41.4120 141.3230 12° North 542 624 33,000  Level FlightAware ADS-B
Mon 03:52:32 AM 41.5130 141.3510 12° North 542 624 33,000  Level FlightAware ADS-B
Mon 03:53:17 AM 41.6230 141.3830 12° North 546 628 33,000  Level FlightAware ADS-B
Mon 03:54:02 AM 41.7280 141.4550 27° Northeast 560 644 33,000  Level FlightAware ADS-B
Mon 03:54:42 AM 41.8180 141.5220 29° Northeast 567 652 33,000  Level FlightAware ADS-B
Mon 03:55:22 AM 41.9110 141.5930 30° Northeast 562 647 33,000  Level FlightAware ADS-B
Mon 03:56:07 AM 42.0130 141.6780 32° Northeast 570 656 33,000  Level FlightAware ADS-B
Mon 03:56:47 AM 42.1040 141.7530 31° Northeast 571 657 33,000  Level FlightAware ADS-B
Mon 03:57:32 AM 42.2050 141.8370 32° Northeast 570 656 33,000  Level FlightAware ADS-B
Mon 03:58:12 AM 42.2930 141.9100 32° Northeast 568 654 33,000  Level FlightAware ADS-B
Mon 03:58:52 AM 42.3850 141.9870 32° Northeast 568 654 33,000  Level FlightAware ADS-B
Mon 03:59:37 AM 42.4840 142.0700 32° Northeast 556 640 33,000  Level FlightAware ADS-B
Mon 04:01:27 AM 42.7180 142.2670 32° Northeast 550 633 33,000  Level FlightAware ADS-B
Mon 04:02:37 AM 42.8700 142.3960 32° Northeast 552 635 33,000  Level FlightAware ADS-B
Mon 04:03:17 AM 42.9580 142.4710 32° Northeast 547 629 33,000  Level FlightAware ADS-B
Mon 04:04:02 AM 43.0530 142.5530 32° Northeast 539 620 33,000  Level FlightAware ADS-B
Mon 04:04:42 AM 43.1400 142.6270 32° Northeast 539 620 33,000  Level FlightAware ADS-B
Mon 04:05:27 AM 43.2360 142.7100 32° Northeast 539 620 33,000  Level FlightAware ADS-B
Mon 04:06:07 AM 43.3220 142.7850 32° Northeast 534 615 33,000  Level FlightAware ADS-B
Mon 04:06:47 AM 43.4070 142.8580 32° Northeast 533 613 33,000  Level FlightAware ADS-B
Mon 04:07:32 AM 43.5020 142.9420 33° Northeast 532 612 33,000  Level FlightAware ADS-B
Mon 04:08:12 AM 43.5860 143.0150 32° Northeast 538 619 33,000  Level FlightAware ADS-B
Mon 04:08:57 AM 43.6810 143.0980 32° Northeast 538 619 33,000  Level FlightAware ADS-B
Mon 04:09:37 AM 43.7640 143.1710 32° Northeast 537 618 33,000  Level FlightAware ADS-B
Mon 04:10:17 AM 43.8480 143.2460 33° Northeast 536 617 33,000  Level FlightAware ADS-B
Mon 04:11:02 AM 43.9440 143.3300 32° Northeast 536 617 33,000  Level FlightAware ADS-B
Mon 04:11:42 AM 44.0260 143.4040 33° Northeast 539 620 33,000  Level FlightAware ADS-B
Mon 04:12:27 AM 44.1170 143.4850 33° Northeast 539 620 33,000  Level FlightAware ADS-B
Mon 04:13:07 AM 44.2020 143.5620 33° Northeast 540 621 33,000  Level FlightAware ADS-B
Mon 04:13:52 AM 44.2960 143.6460 33° Northeast 538 619 33,000  Level FlightAware ADS-B
Mon 04:14:32 AM 44.3810 143.7230 33° Northeast 537 618 33,000  Level FlightAware ADS-B
Mon 04:15:12 AM 44.4650 143.7990 33° Northeast 534 615 33,000  Level FlightAware ADS-B
Mon 04:15:57 AM 44.5590 143.8850 33° Northeast 534 615 33,000  Level FlightAware ADS-B
Mon 04:16:37 AM 44.6440 143.9620 33° Northeast 536 617 33,000  Level FlightAware ADS-B
Mon 04:17:22 AM 44.7340 144.0450 33° Northeast 535 616 33,000  Level FlightAware ADS-B
Mon 04:18:02 AM 44.8180 144.1220 33° Northeast 522 601 33,000  Level FlightAware ADS-B
Mon 04:18:42 AM 44.9010 144.1980 33° Northeast 519 597 33,000  Level FlightAware ADS-B
Mon 04:19:27 AM 44.9860 144.2800 34° Northeast 520 598 33,000  Level FlightAware ADS-B
Mon 04:20:07 AM 45.0650 144.3710 39° Northeast 518 596 33,000  Level FlightAware ADS-B
Mon 04:20:47 AM 45.1360 144.4570 40° Northeast 517 595 33,000  Level FlightAware ADS-B
Mon 04:21:32 AM 45.2200 144.5610 41° Northeast 515 593 33,000  Level FlightAware ADS-B
Mon 04:22:12 AM 45.2910 144.6490 41° Northeast 512 589 33,000  Level FlightAware ADS-B
Mon 04:22:47 AM 45.3460 144.7160 41° Northeast 512 589 33,000  Level FlightAware ADS-B
Mon 04:23:37 AM 45.4220 144.8100 41° Northeast 512 589 33,000  Level FlightAware ADS-B
Mon 04:24:17 AM 45.4830 144.8860 41° Northeast 512 589 33,000  Level FlightAware ADS-B
Mon 04:24:57 AM 45.5430 144.9610 41° Northeast 512 589 33,000  Level FlightAware ADS-B
Mon 04:25:37 AM 45.6040 145.0370 41° Northeast 512 589 33,000  Level FlightAware ADS-B
Mon 04:26:17 AM 45.6650 145.1120 41° Northeast 512 589 33,000  Level FlightAware ADS-B
Mon 04:27:07 AM 45.7410 145.2070 41° Northeast 512 589 33,000  Level FlightAware ADS-B
Mon 04:27:47 AM 45.8020 145.2830 41° Northeast 512 589 33,000  Level FlightAware ADS-B
Mon 04:28:27 AM 45.8620 145.3580 41° Northeast 512 589 33,000  Level FlightAware ADS-B
Mon 04:29:07 AM 45.9230 145.4340 41° Northeast 512 589 33,000  Level FlightAware ADS-B
Mon 04:29:47 AM 45.9840 145.5100 41° Northeast 512 589 33,000  Level FlightAware ADS-B
Mon 04:30:37 AM 46.0600 145.6060 41° Northeast 512 589 33,000  Level FlightAware ADS-B
Mon 04:31:17 AM 46.1210 145.6820 41° Northeast 512 589 33,000  Level FlightAware ADS-B
Mon 04:31:57 AM 46.1810 145.7580 41° Northeast 512 589 33,000 11 Level FlightAware ADS-B
Mon 04:34:00 AM 46.3880 146.0332 42° Northeast  Level FlightAware Approximate
Mon 04:35:00 AM 46.4887 146.1682 43° Northeast  Level FlightAware Approximate
Mon 04:36:00 AM 46.5893 146.3038 43° Northeast  Level FlightAware Approximate
Mon 04:37:00 AM 46.6897 146.4398 43° Northeast  Level FlightAware Approximate
Mon 04:38:00 AM 46.7899 146.5763 43° Northeast  Level FlightAware Approximate
Mon 04:39:00 AM 46.8900 146.7133 43° Northeast  Level FlightAware Approximate
Mon 04:40:00 AM 46.9907 146.8498 43° Northeast  Level FlightAware Approximate
Mon 04:41:00 AM 47.0915 146.9863 43° Northeast  Level FlightAware Approximate
Mon 04:42:00 AM 47.1921 147.1233 43° Northeast  Level FlightAware Approximate
Mon 04:43:00 AM 47.2925 147.2608 43° Northeast  Level FlightAware Approximate
Mon 04:44:00 AM 47.3928 147.3989 43° Northeast  Level FlightAware Approximate
Mon 04:45:00 AM 47.4929 147.5374 43° Northeast  Level FlightAware Approximate
Mon 04:46:00 AM 47.5928 147.6765 43° Northeast  Level FlightAware Approximate
Mon 04:47:00 AM 47.6926 147.8162 43° Northeast  Level FlightAware Approximate
Mon 04:48:00 AM 47.7922 147.9563 43° Northeast  Level FlightAware Approximate
Mon 04:49:00 AM 47.8916 148.0970 43° Northeast  Level FlightAware Approximate
Mon 04:50:00 AM 47.9908 148.2383 44° Northeast  Level FlightAware Approximate
Mon 04:51:00 AM 48.0899 148.3800 44° Northeast  Level FlightAware Approximate
Mon 04:52:00 AM 48.1888 148.5224 44° Northeast  Level FlightAware Approximate
Mon 04:53:00 AM 48.2876 148.6653 44° Northeast  Level FlightAware Approximate
Mon 04:54:00 AM 48.3861 148.8087 44° Northeast  Level FlightAware Approximate
Mon 04:55:00 AM 48.4845 148.9527 44° Northeast  Level FlightAware Approximate
Mon 04:56:00 AM 48.5827 149.0972 44° Northeast  Level FlightAware Approximate
Mon 04:57:00 AM 48.6807 149.2423 44° Northeast  Level FlightAware Approximate
Mon 04:58:00 AM 48.7785 149.3880 44° Northeast  Level FlightAware Approximate
Mon 04:59:00 AM 48.8761 149.5343 45° Northeast  Level FlightAware Approximate
Mon 05:00:00 AM 48.9736 149.6811 45° Northeast  Level FlightAware Approximate
Mon 05:01:00 AM 49.0709 149.8285 45° Northeast  Level FlightAware Approximate
Mon 05:02:00 AM 49.1679 149.9764 45° Northeast  Level FlightAware Approximate
Mon 05:03:00 AM 49.2649 150.1248 45° Northeast  Level FlightAware Approximate
Mon 05:04:00 AM 49.3618 150.2736 45° Northeast  Level FlightAware Approximate
Mon 05:05:00 AM 49.4585 150.4231 45° Northeast  Level FlightAware Approximate
Mon 05:06:00 AM 49.5550 150.5732 45° Northeast  Level FlightAware Approximate
Mon 05:07:00 AM 49.6513 150.7238 45° Northeast  Level FlightAware Approximate
Mon 05:08:00 AM 49.7473 150.8750 45° Northeast  Level FlightAware Approximate
Mon 05:09:00 AM 49.8432 151.0269 46° Northeast  Level FlightAware Approximate
Mon 05:10:00 AM 49.9389 151.1794 46° Northeast  Level FlightAware Approximate
Mon 05:11:00 AM 50.0344 151.3324 46° Northeast  Level FlightAware Approximate
Mon 05:12:00 AM 50.1297 151.4861 46° Northeast  Level FlightAware Approximate
Mon 05:13:00 AM 50.2247 151.6405 46° Northeast  Level FlightAware Approximate
Mon 05:14:00 AM 50.3193 151.7959 46° Northeast  Level FlightAware Approximate
Mon 05:15:00 AM 50.4136 151.9518 46° Northeast  Level FlightAware Approximate
Mon 05:16:00 AM 50.5078 152.1085 47° Northeast  Level FlightAware Approximate
Mon 05:17:00 AM 50.6017 152.2657 47° Northeast  Level FlightAware Approximate
Mon 05:18:00 AM 50.6954 152.4236 47° Northeast  Level FlightAware Approximate
Mon 05:19:00 AM 50.7889 152.5821 47° Northeast  Level FlightAware Approximate
Mon 05:20:00 AM 50.8822 152.7413 47° Northeast  Level FlightAware Approximate
Mon 05:21:00 AM 50.9752 152.9010 47° Northeast  Level FlightAware Approximate
Mon 05:22:00 AM 51.0681 153.0614 47° Northeast  Level FlightAware Approximate
Mon 05:23:00 AM 51.1607 153.2225 47° Northeast  Level FlightAware Approximate
Mon 05:24:00 AM 51.2531 153.3842 48° Northeast  Level FlightAware Approximate
Mon 05:25:00 AM 51.3453 153.5466 48° Northeast  Level FlightAware Approximate
Mon 05:26:00 AM 51.4372 153.7096 48° Northeast  Level FlightAware Approximate
Mon 05:27:00 AM 51.5290 153.8733 48° Northeast  Level FlightAware Approximate
Mon 05:28:00 AM 51.6205 154.0376 48° Northeast  Level FlightAware Approximate
Mon 05:29:00 AM 51.7117 154.2026 48° Northeast  Level FlightAware Approximate
Mon 05:30:00 AM 51.8028 154.3683 48° Northeast  Level FlightAware Approximate
Mon 05:31:00 AM 51.8936 154.5346 48° Northeast  Level FlightAware Approximate
Mon 05:32:00 AM 51.9841 154.7016 49° Northeast  Level FlightAware Approximate
Mon 05:33:00 AM 52.0745 154.8693 49° Northeast  Level FlightAware Approximate
Mon 05:34:00 AM 52.1646 155.0376 49° Northeast  Level FlightAware Approximate
Mon 05:35:00 AM 52.2544 155.2067 49° Northeast  Level FlightAware Approximate
Mon 05:36:00 AM 52.3440 155.3764 49° Northeast  Level FlightAware Approximate
Mon 05:37:00 AM 52.4334 155.5468 49° Northeast  Level FlightAware Approximate
Mon 05:38:00 AM 52.5224 155.7177 49° Northeast  Level FlightAware Approximate
Mon 05:39:00 AM 52.6111 155.8892 50° Northeast  Level FlightAware Approximate
Mon 05:40:00 AM 52.6985 156.0630 50° Northeast  Level FlightAware Approximate
Mon 05:41:00 AM 52.7855 156.2375 50° Northeast  Level FlightAware Approximate
Mon 05:42:00 AM 52.8648 156.4221 55° Northeast  Level FlightAware Approximate
Mon 05:43:00 AM 52.9423 156.6093 55° Northeast  Level FlightAware Approximate
Mon 05:44:00 AM 53.0195 156.7971 56° Northeast  Level FlightAware Approximate
Mon 05:45:00 AM 53.0964 156.9856 56° Northeast  Level FlightAware Approximate
Mon 05:46:00 AM 53.1730 157.1747 56° Northeast  Level FlightAware Approximate
Mon 05:47:00 AM 53.2493 157.3645 56° Northeast  Level FlightAware Approximate
Mon 05:48:00 AM 53.3254 157.5549 56° Northeast  Level FlightAware Approximate
Mon 05:49:00 AM 53.4023 157.7447 56° Northeast  Level FlightAware Approximate
Mon 05:50:00 AM 53.4789 157.9352 56° Northeast  Level FlightAware Approximate
Mon 05:51:00 AM 53.5552 158.1264 56° Northeast  Level FlightAware Approximate
Mon 05:52:00 AM 53.6312 158.3183 56° Northeast  Level FlightAware Approximate
Mon 05:53:00 AM 53.7069 158.5109 56° Northeast  Level FlightAware Approximate
Mon 05:54:00 AM 53.7822 158.7042 57° Northeast  Level FlightAware Approximate
Mon 05:55:00 AM 53.8574 158.8980 57° Northeast  Level FlightAware Approximate
Mon 05:56:00 AM 53.9323 159.0925 57° Northeast  Level FlightAware Approximate
Mon 05:57:00 AM 54.0069 159.2877 57° Northeast  Level FlightAware Approximate
Mon 05:58:00 AM 54.0787 159.4770 57° Northeast  Level FlightAware Approximate
Mon 05:59:00 AM 54.1502 159.6669 57° Northeast  Level FlightAware Approximate
Mon 06:00:00 AM 54.2217 159.8573 57° Northeast  Level FlightAware Approximate
Mon 06:01:00 AM 54.2935 160.0476 57° Northeast  Level FlightAware Approximate
Mon 06:02:00 AM 54.3650 160.2386 57° Northeast  Level FlightAware Approximate
Mon 06:03:00 AM 54.4361 160.4302 57° Northeast  Level FlightAware Approximate
Mon 06:04:00 AM 54.5070 160.6225 58° Northeast  Level FlightAware Approximate
Mon 06:05:00 AM 54.5776 160.8155 58° Northeast  Level FlightAware Approximate
Mon 06:06:00 AM 54.6479 161.0092 58° Northeast  Level FlightAware Approximate
Mon 06:07:00 AM 54.7178 161.2035 58° Northeast  Level FlightAware Approximate
Mon 06:08:00 AM 54.7874 161.3985 58° Northeast  Level FlightAware Approximate
Mon 06:09:00 AM 54.8568 161.5941 58° Northeast  Level FlightAware Approximate
Mon 06:10:00 AM 54.9258 161.7905 58° Northeast  Level FlightAware Approximate
Mon 06:11:00 AM 54.9945 161.9875 59° Northeast  Level FlightAware Approximate
Mon 06:12:00 AM 55.0629 162.1851 59° Northeast  Level FlightAware Approximate
Mon 06:13:00 AM 55.1309 162.3835 59° Northeast  Level FlightAware Approximate
Mon 06:14:00 AM 55.2009 162.5891 59° Northeast  Level FlightAware Approximate
Mon 06:15:00 AM 55.2705 162.7954 59° Northeast  Level FlightAware Approximate
Mon 06:16:00 AM 55.3418 163.0003 57° Northeast  Level FlightAware Approximate
Mon 06:17:00 AM 55.4168 163.2014 57° Northeast  Level FlightAware Approximate
Mon 06:18:00 AM 55.4914 163.4034 57° Northeast  Level FlightAware Approximate
Mon 06:19:00 AM 55.5657 163.6061 57° Northeast  Level FlightAware Approximate
Mon 06:20:00 AM 55.6397 163.8096 57° Northeast  Level FlightAware Approximate
Mon 06:21:00 AM 55.7134 164.0138 57° Northeast  Level FlightAware Approximate
Mon 06:22:00 AM 55.7867 164.2188 57° Northeast  Level FlightAware Approximate
Mon 06:23:00 AM 55.8597 164.4246 58° Northeast  Level FlightAware Approximate
Mon 06:24:00 AM 55.9323 164.6311 58° Northeast  Level FlightAware Approximate
Mon 06:25:00 AM 56.0046 164.8385 58° Northeast  Level FlightAware Approximate
Mon 06:26:00 AM 56.0765 165.0466 58° Northeast  Level FlightAware Approximate
Mon 06:27:00 AM 56.1481 165.2554 58° Northeast  Level FlightAware Approximate
Mon 06:28:00 AM 56.2193 165.4651 59° Northeast  Level FlightAware Approximate
Mon 06:29:00 AM 56.2902 165.6755 59° Northeast  Level FlightAware Approximate
Mon 06:30:00 AM 56.3607 165.8867 59° Northeast  Level FlightAware Approximate
Mon 06:31:00 AM 56.4308 166.0987 59° Northeast  Level FlightAware Approximate
Mon 06:32:00 AM 56.5006 166.3115 59° Northeast  Level FlightAware Approximate
Mon 06:33:00 AM 56.5701 166.5250 59° Northeast  Level FlightAware Approximate
Mon 06:34:00 AM 56.6391 166.7394 60° Northeast  Level FlightAware Approximate
Mon 06:35:00 AM 56.7078 166.9545 60° Northeast  Level FlightAware Approximate
Mon 06:36:00 AM 56.7761 167.1704 60° Northeast  Level FlightAware Approximate
Mon 06:37:00 AM 56.8441 167.3871 60° Northeast  Level FlightAware Approximate
Mon 06:38:00 AM 56.9116 167.6046 60° Northeast  Level FlightAware Approximate
Mon 06:39:00 AM 56.9788 167.8228 60° Northeast  Level FlightAware Approximate
Mon 06:40:00 AM 57.0456 168.0419 61° Northeast  Level FlightAware Approximate
Mon 06:41:00 AM 57.1120 168.2617 61° Northeast  Level FlightAware Approximate
Mon 06:42:00 AM 57.1781 168.4823 61° Northeast  Level FlightAware Approximate
Mon 06:43:00 AM 57.2437 168.7038 61° Northeast  Level FlightAware Approximate
Mon 06:44:00 AM 57.3089 168.9261 61° Northeast  Level FlightAware Approximate
Mon 06:45:00 AM 57.3737 169.1491 62° Northeast  Level FlightAware Approximate
Mon 06:46:00 AM 57.4381 169.3730 62° Northeast  Level FlightAware Approximate
Mon 06:47:00 AM 57.5022 169.5976 62° Northeast  Level FlightAware Approximate
Mon 06:48:00 AM 57.5658 169.8230 62° Northeast  Level FlightAware Approximate
Mon 06:49:00 AM 57.6290 170.0491 62° Northeast  Level FlightAware Approximate
Mon 06:50:00 AM 57.6918 170.2761 63° Northeast  Level FlightAware Approximate
Mon 06:51:00 AM 57.7542 170.5039 63° Northeast  Level FlightAware Approximate
Mon 06:52:00 AM 57.8162 170.7324 63° Northeast  Level FlightAware Approximate
Mon 06:53:00 AM 57.8778 170.9617 63° Northeast  Level FlightAware Approximate
Mon 06:54:00 AM 57.9390 171.1919 63° Northeast  Level FlightAware Approximate
Mon 06:55:00 AM 57.9997 171.4228 64° Northeast  Level FlightAware Approximate
Mon 06:56:00 AM 58.0601 171.6544 64° Northeast  Level FlightAware Approximate
Mon 06:57:00 AM 58.1200 171.8869 64° Northeast  Level FlightAware Approximate
Mon 06:58:00 AM 58.1795 172.1201 64° Northeast  Level FlightAware Approximate
Mon 06:59:00 AM 58.2385 172.3542 64° Northeast  Level FlightAware Approximate
Mon 07:00:00 AM 58.2972 172.5888 64° Northeast  Level FlightAware Approximate
Mon 07:01:00 AM 58.3556 172.8242 65° Northeast  Level FlightAware Approximate
Mon 07:02:00 AM 58.4135 173.0605 65° Northeast  Level FlightAware Approximate
Mon 07:03:00 AM 58.4710 173.2975 65° Northeast  Level FlightAware Approximate
Mon 07:04:00 AM 58.5280 173.5352 65° Northeast  Level FlightAware Approximate
Mon 07:05:00 AM 58.5846 173.7738 65° Northeast  Level FlightAware Approximate
Mon 07:06:00 AM 58.6407 174.0131 66° East  Level FlightAware Approximate
Mon 07:07:00 AM 58.6964 174.2532 66° East  Level FlightAware Approximate
Mon 07:08:00 AM 58.7517 174.4940 66° East  Level FlightAware Approximate
Mon 07:09:00 AM 58.8065 174.7356 66° East  Level FlightAware Approximate
Mon 07:10:00 AM 58.8609 174.9780 66° East  Level FlightAware Approximate
Mon 07:11:00 AM 58.9147 175.2211 67° East  Level FlightAware Approximate
Mon 07:12:00 AM 58.9682 175.4650 67° East  Level FlightAware Approximate
Mon 07:13:00 AM 59.0212 175.7096 67° East  Level FlightAware Approximate
Mon 07:14:00 AM 59.0737 175.9550 67° East  Level FlightAware Approximate
Mon 07:15:00 AM 59.1257 176.2012 68° East  Level FlightAware Approximate
Mon 07:16:00 AM 59.1773 176.4480 68° East  Level FlightAware Approximate
Mon 07:17:00 AM 59.2285 176.6957 68° East  Level FlightAware Approximate
Mon 07:18:00 AM 59.2791 176.9440 68° East  Level FlightAware Approximate
Mon 07:19:00 AM 59.3293 177.1931 68° East  Level FlightAware Approximate
Mon 07:20:00 AM 59.3790 177.4430 69° East  Level FlightAware Approximate
Mon 07:21:00 AM 59.4282 177.6935 69° East  Level FlightAware Approximate
Mon 07:22:00 AM 59.4769 177.9448 69° East  Level FlightAware Approximate
Mon 07:23:00 AM 59.5252 178.1968 69° East  Level FlightAware Approximate
Mon 07:24:00 AM 59.5729 178.4496 69° East  Level FlightAware Approximate
Mon 07:25:00 AM 59.6202 178.7030 70° East  Level FlightAware Approximate
Mon 07:26:00 AM 59.6670 178.9572 70° East  Level FlightAware Approximate
Mon 07:26:12 AM 59.7333 179.3500 64° Northeast 463 533 35,000  Level Anchorage Center
Mon 07:27:00 AM 59.7133 179.2120 70° East  Level FlightAware Approximate
Mon 07:27:16 AM 59.7500 179.4167 70° East 491 565 35,000  Level Anchorage Center
Mon 07:27:55 AM 59.7500 179.4167 70° East 491 565 35,000  Level Anchorage Center
Mon 07:28:00 AM 59.7588 179.4678 71° East  Level FlightAware Approximate
Mon 07:29:00 AM 59.8028 179.7249 71° East  Level FlightAware Approximate
Mon 07:30:00 AM 59.8464 179.9827 71° East  Level FlightAware Approximate
Mon 07:31:00 AM 59.8894 -179.7588 72° East  Level FlightAware Approximate
Mon 07:31:50 AM 59.9667 -179.3333 71° East 490 564 35,000  Level Anchorage Center
Mon 07:32:00 AM 60.0022 -179.1287 72° East 463 533 35,000  Level FlightAware Transoceanic
Mon 07:33:00 AM 60.0707 -178.7126 72° East 491 565 35,000  Level FlightAware Transoceanic
Mon 07:33:10 AM 60.0167 -179.0333 72° East 490 564 35,000  Level Anchorage Center
Mon 07:34:00 AM 60.1144 -178.4425 72° East 491 565 35,000  Level FlightAware Transoceanic
Mon 07:35:00 AM 60.1575 -178.1716 72° East 491 565 35,000  Level FlightAware Transoceanic
Mon 07:36:00 AM 60.2000 -177.9000 63° Northeast 491 565 35,000  Level FlightAware Transoceanic
Mon 07:36:35 AM 60.2000 -177.9000 63° Northeast 499 574 35,000  Level Anchorage Center
Mon 07:37:00 AM 60.2618 -177.6596 63° Northeast 491 565 35,000  Level FlightAware Transoceanic
Mon 07:38:00 AM 60.3231 -177.4183 63° Northeast 490 564 35,000  Level FlightAware Transoceanic
Mon 07:39:00 AM 60.3901 -177.1518 63° Northeast 490 564 35,000  Level FlightAware Transoceanic
Mon 07:40:00 AM 60.4525 -176.9004 63° Northeast 490 564 35,000  Level FlightAware Transoceanic
Mon 07:40:38 AM 60.4500 -176.9167 63° Northeast 501 577 35,000  Level Anchorage Center
Mon 07:41:00 AM 60.5145 -176.6481 64° Northeast 490 564 35,000  Level FlightAware Transoceanic
Mon 07:42:00 AM 60.5759 -176.3948 64° Northeast 490 564 35,000  Level FlightAware Transoceanic
Mon 07:43:00 AM 60.6369 -176.1406 64° Northeast 499 574 35,000  Level FlightAware Transoceanic
Mon 07:44:00 AM 60.6974 -175.8854 64° Northeast 499 574 35,000  Level FlightAware Transoceanic
Mon 07:45:00 AM 60.7574 -175.6293 65° Northeast 499 574 35,000  Level FlightAware Transoceanic
Mon 07:46:00 AM 60.8152 -175.3849 65° Northeast 501 577 35,000  Level FlightAware Transoceanic
Mon 07:47:00 AM 60.8743 -175.1262 65° Northeast 501 577 35,000  Level FlightAware Transoceanic
Mon 07:48:00 AM 60.9330 -174.8666 65° Northeast 501 577 35,000  Level FlightAware Transoceanic
Mon 07:49:00 AM 60.9911 -174.6060 65° Northeast 501 577 35,000  Level FlightAware Transoceanic
Mon 07:50:00 AM 61.0488 -174.3445 66° East 501 577 35,000  Level FlightAware Transoceanic
Mon 07:50:14 AM 61.0167 -174.4667 65° Northeast 500 575 35,000  Level Anchorage Center
Mon 07:50:56 AM 61.0500 -174.2333 67° East 470 541 35,000  Level Anchorage Center
Mon 07:51:00 AM 61.1059 -174.0820 66° East 501 577 35,000  Level FlightAware Transoceanic
Mon 07:51:56 AM 61.1000 -173.9667 69° East 490 564 35,000  Level Anchorage Center
Mon 07:52:00 AM 61.1625 -173.8186 66° East 501 577 35,000  Level FlightAware Transoceanic
Mon 07:52:56 AM 61.1667 -173.7167 61° Northeast 490 564 35,000  Level Anchorage Center
Mon 07:53:00 AM 61.2186 -173.5542 66° East 501 577 35,000  Level FlightAware Transoceanic
Mon 07:53:56 AM 61.2167 -173.4500 69° East 490 564 35,000  Level Anchorage Center
Mon 07:54:00 AM 61.2742 -173.2889 67° East 501 577 35,000  Level FlightAware Transoceanic
Mon 07:54:56 AM 61.2833 -173.1833 62° Northeast 490 564 35,000  Level Anchorage Center
Mon 07:55:00 AM 61.3293 -173.0227 67° East 501 577 35,000  Level FlightAware Transoceanic
Mon 07:55:56 AM 61.3333 -172.9167 69° East 500 575 35,000  Level Anchorage Center
Mon 07:56:00 AM 61.3448 -172.9308 67° East 500 575 35,000  Level FlightAware Transoceanic
Mon 07:56:56 AM 61.4000 -172.6500 62° Northeast 500 575 35,000  Level Anchorage Center
Mon 07:57:56 AM 61.4500 -172.3833 68° East 490 564 35,000  Level Anchorage Center
Mon 07:58:56 AM 61.5000 -172.1167 68° East 490 564 35,000  Level Anchorage Center
Mon 07:59:56 AM 61.5500 -171.8500 68° East 500 575 35,000  Level Anchorage Center
Mon 08:00:56 AM 61.6000 -171.5833 68° East 500 575 35,000  Level Anchorage Center
Mon 08:01:56 AM 61.6500 -171.3000 70° East 500 575 35,000  Level Anchorage Center
Mon 08:02:56 AM 61.7000 -171.0333 68° East 500 575 35,000  Level Anchorage Center
Mon 08:03:57 AM 61.7500 -170.7500 69° East 510 587 35,000  Level Anchorage Center
Mon 08:04:57 AM 61.8167 -170.4667 63° Northeast 510 587 35,000  Level Anchorage Center
Mon 08:05:57 AM 61.8667 -170.1833 69° East 520 598 35,000  Level Anchorage Center
Mon 08:06:57 AM 61.9167 -169.9000 69° East 510 587 35,000  Level Anchorage Center
Mon 08:07:57 AM 61.9667 -169.6167 69° East 500 575 35,000  Level Anchorage Center
Mon 08:08:57 AM 62.0167 -169.3333 69° East 500 575 35,000  Level Anchorage Center
Mon 08:09:57 AM 62.0667 -169.0667 68° East 500 575 35,000  Level Anchorage Center
Mon 08:10:57 AM 62.1167 -168.7833 69° East 500 575 35,000  Level Anchorage Center
Mon 08:11:57 AM 62.1667 -168.5000 69° East 500 575 35,000  Level Anchorage Center
Mon 08:12:57 AM 62.2167 -168.2167 69° East 500 575 35,000  Level Anchorage Center
Mon 08:13:57 AM 62.2500 -167.9333 76° East 510 587 35,000  Level Anchorage Center
Mon 08:14:57 AM 62.3000 -167.6333 70° East 500 575 35,000  Level Anchorage Center
Mon 08:15:57 AM 62.3500 -167.3500 69° East 500 575 35,000  Level Anchorage Center
Mon 08:16:57 AM 62.4000 -167.0667 69° East 500 575 35,000  Level Anchorage Center
Mon 08:17:57 AM 62.4500 -166.7833 69° East 500 575 35,000  Level Anchorage Center
Mon 08:18:57 AM 62.4833 -166.4833 76° East 500 575 35,000  Level Anchorage Center
Mon 08:19:58 AM 62.5167 -166.2500 73° East 500 575 35,000  Level Anchorage Center
Mon 08:20:58 AM 62.5667 -165.9667 69° East 500 575 35,000  Level Anchorage Center
Mon 08:21:58 AM 62.6167 -165.6667 70° East 500 575 35,000  Level Anchorage Center
Mon 08:23:04 AM 62.6667 -165.3167 73° East 500 575 35,000  Level Anchorage Center
Mon 08:24:04 AM 62.7000 -165.0833 73° East 510 587 35,000  Level Anchorage Center
Mon 08:25:04 AM 62.7500 -164.7167 73° East 500 575 35,000  Level Anchorage Center
Mon 08:26:04 AM 62.7833 -164.4167 76° East 510 587 35,000  Level Anchorage Center
Mon 08:27:05 AM 62.8000 -164.1167 83° East 500 575 35,000  Level Anchorage Center
Mon 08:28:05 AM 62.8167 -163.8000 83° East 510 587 35,000  Level Anchorage Center
Mon 08:29:05 AM 62.8167 -163.5000 90° East 510 587 35,000  Level Anchorage Center
Mon 08:30:04 AM 62.8333 -163.1833 83° East 510 587 35,000  Level Anchorage Center
Mon 08:31:05 AM 62.8500 -162.8667 83° East 510 587 35,000  Level Anchorage Center
Mon 08:32:05 AM 62.8667 -162.5667 83° East 510 587 35,000  Level Anchorage Center
Mon 08:33:05 AM 62.8667 -162.2500 90° East 520 598 35,000  Level Anchorage Center
Mon 08:34:05 AM 62.8833 -161.9333 83° East 510 587 35,000  Level Anchorage Center
Mon 08:35:05 AM 62.8833 -161.6167 90° East 500 575 35,000  Level Anchorage Center
Mon 08:36:05 AM 62.9000 -161.3167 83° East 510 587 35,000  Level Anchorage Center
Mon 08:37:05 AM 62.9167 -160.9833 84° East 510 587 35,000  Level Anchorage Center
Mon 08:38:05 AM 62.9167 -160.6667 90° East 500 575 35,000  Level Anchorage Center
Mon 08:39:06 AM 62.9167 -160.3667 90° East 510 587 35,000  Level Anchorage Center
Mon 08:40:06 AM 62.9333 -160.0500 83° East 500 575 35,000  Level Anchorage Center
Mon 08:41:06 AM 62.9333 -159.7500 90° East 500 575 35,000  Level Anchorage Center
Mon 08:42:06 AM 62.9333 -159.4333 90° East 500 575 35,000  Level Anchorage Center
Mon 08:43:06 AM 62.9500 -159.1333 83° East 500 575 35,000  Level Anchorage Center
Mon 08:44:06 AM 62.9500 -158.8167 90° East 510 587 35,000  Level Anchorage Center
Mon 08:45:06 AM 62.9500 -158.5000 90° East 510 587 35,000  Level Anchorage Center
Mon 08:46:06 AM 62.9500 -158.2000 90° East 510 587 35,000  Level Anchorage Center
Mon 08:47:07 AM 62.9500 -157.9333 90° East 510 587 35,000  Level Anchorage Center
Mon 08:48:07 AM 62.9500 -157.5667 90° East 500 575 35,000  Level Anchorage Center
Mon 08:49:07 AM 62.9500 -157.2500 90° East 510 587 35,000  Level Anchorage Center
Mon 08:50:07 AM 62.9500 -156.9333 90° East 510 587 35,000  Level Anchorage Center
Mon 08:51:07 AM 62.9500 -156.6333 90° East 510 587 35,000  Level Anchorage Center
Mon 08:52:07 AM 62.9500 -156.3167 90° East 490 564 35,000  Level Anchorage Center
Mon 08:53:07 AM 62.9500 -156.0167 90° East 530 610 35,000  Level Anchorage Center
Mon 08:54:08 AM 62.9500 -155.7000 90° East 520 598 35,000  Level Anchorage Center
Mon 08:59:47 AM 62.5450 -154.1960 90° East 508 585 35,000  Level FlightAware ADS-B
Mon 09:00:32 AM 62.4870 -154.0020 123° Southeast 507 583 35,000  Level FlightAware ADS-B
Mon 09:01:12 AM 62.4360 -153.8320 123° Southeast 506 582 35,000  Level FlightAware ADS-B
Mon 09:01:52 AM 62.3850 -153.6610 123° Southeast 505 581 35,000  Level FlightAware ADS-B
Mon 09:02:37 AM 62.3290 -153.4770 123° Southeast 506 582 35,000  Level FlightAware ADS-B
Mon 09:03:17 AM 62.2770 -153.3090 124° Southeast 506 582 35,000  Level FlightAware ADS-B
Mon 09:04:02 AM 62.2190 -153.1190 123° Southeast 506 582 35,000  Level FlightAware ADS-B
Mon 09:04:42 AM 62.1670 -152.9540 124° Southeast 506 582 35,000  Level FlightAware ADS-B
Mon 09:05:22 AM 62.1150 -152.7860 123° Southeast 507 583 35,000  Level FlightAware ADS-B
Mon 09:06:07 AM 62.0570 -152.6030 124° Southeast 508 585 35,000  Level FlightAware ADS-B
Mon 09:06:47 AM 62.0040 -152.4390 124° Southeast 508 585 35,000  Level FlightAware ADS-B
Mon 09:07:27 AM 61.9600 -152.2660 118° Southeast 511 588 35,000  Level FlightAware ADS-B
Mon 09:08:12 AM 61.9270 -152.0500 108° East 512 589 35,000  Level FlightAware ADS-B
Mon 09:08:52 AM 61.9000 -151.8550 106° East 512 589 35,000  Level FlightAware ADS-B
Mon 09:09:37 AM 61.8700 -151.6350 106° East 513 590 35,000  Level FlightAware ADS-B
Mon 09:10:17 AM 61.8430 -151.4450 107° East 513 590 35,000  Level FlightAware ADS-B
Mon 09:10:57 AM 61.8160 -151.2520 106° East 514 592 35,000  Level FlightAware ADS-B
Mon 09:11:42 AM 61.7860 -151.0420 107° East 516 594 35,000  Level FlightAware ADS-B
Mon 09:12:22 AM 61.7580 -150.8500 107° East 516 594 35,000  Level FlightAware ADS-B
Mon 09:13:07 AM 61.7260 -150.6300 107° East 517 595 35,000  Level FlightAware ADS-B
Mon 09:13:47 AM 61.6970 -150.4370 108° East 517 595 35,000  Level FlightAware ADS-B
Mon 09:14:27 AM 61.6690 -150.2510 108° East 519 597 35,000  Level FlightAware ADS-B
Mon 09:15:12 AM 61.6360 -150.0350 108° East 519 597 35,000  Level FlightAware ADS-B
Mon 09:15:52 AM 61.6070 -149.8430 108° East 520 598 35,000  Level FlightAware ADS-B
Mon 09:16:37 AM 61.5720 -149.6220 108° East 521 600 35,000  Level FlightAware ADS-B
Mon 09:17:17 AM 61.5420 -149.4320 108° East 522 601 35,000  Level FlightAware ADS-B
Mon 09:17:57 AM 61.5110 -149.2370 108° East 523 602 35,000  Level FlightAware ADS-B
Mon 09:18:42 AM 61.4770 -149.0290 109° East 524 603 35,000  Level FlightAware ADS-B
Mon 09:19:22 AM 61.4460 -148.8390 109° East 524 603 35,000  Level FlightAware ADS-B
Mon 09:20:02 AM 61.4130 -148.6460 110° East 525 604 35,000  Level FlightAware ADS-B
Mon 09:20:47 AM 61.3770 -148.4290 109° East 525 604 35,000  Level FlightAware ADS-B
Mon 09:21:27 AM 61.3450 -148.2390 109° East 525 604 35,000  Level FlightAware ADS-B
Mon 09:22:12 AM 61.3080 -148.0270 110° East 523 602 35,000  Level FlightAware ADS-B
Mon 09:22:52 AM 61.2760 -147.8400 110° East 524 603 35,000  Level FlightAware ADS-B
Mon 09:23:32 AM 61.2430 -147.6520 110° East 524 603 35,000  Level FlightAware ADS-B
Mon 09:24:17 AM 61.2040 -147.4340 110° East 524 603 35,000  Level FlightAware ADS-B
Mon 09:24:57 AM 61.1710 -147.2480 110° East 526 605 35,000  Level FlightAware ADS-B
Mon 09:25:42 AM 61.1330 -147.0400 111° Southeast 525 604 35,000  Level FlightAware ADS-B
Mon 09:26:37 AM 61.0880 -146.7910 110° East 525 604 35,000  Level FlightAware ADS-B
Mon 09:27:17 AM 61.0600 -146.6310 110° East 525 604 35,000  Level FlightAware ADS-B
Mon 09:27:57 AM 61.0320 -146.4700 110° East 525 604 35,000  Level FlightAware ADS-B
Mon 09:28:37 AM 61.0040 -146.3100 110° East 525 604 35,000  Level FlightAware ADS-B
Mon 09:29:27 AM 60.9680 -146.1100 110° East 525 604 35,000  Level FlightAware ADS-B
Mon 09:30:07 AM 60.9400 -145.9510 110° East 525 604 35,000  Level FlightAware ADS-B
Mon 09:30:47 AM 60.9120 -145.7910 110° East 525 604 35,000  Level FlightAware ADS-B
Mon 09:31:27 AM 60.8830 -145.6310 110° East 525 604 35,000  Level FlightAware ADS-B
Mon 09:32:07 AM 60.8550 -145.4720 110° East 525 604 35,000  Level FlightAware ADS-B
Mon 09:32:47 AM 60.8270 -145.3130 110° East 525 604 35,000  Level FlightAware ADS-B
Mon 09:33:37 AM 60.7920 -145.1140 110° East 525 604 35,000  Level FlightAware ADS-B
Mon 09:34:17 AM 60.7630 -144.9550 110° East 525 604 35,000  Level FlightAware ADS-B
Mon 09:34:57 AM 60.7350 -144.7960 110° East 525 604 35,000  Level FlightAware ADS-B
Mon 09:35:37 AM 60.7070 -144.6370 110° East 525 604 35,000  Level FlightAware ADS-B
Mon 09:36:12 AM 60.5667 -144.1500 110° East 520 598 35,000  Level Anchorage Center
Mon 09:37:12 AM 60.5000 -143.8833 117° Southeast 530 610 35,000  Level Anchorage Center
Mon 09:38:12 AM 60.4500 -143.6167 111° Southeast 520 598 35,000  Level Anchorage Center
Mon 09:39:12 AM 60.3833 -143.3333 115° Southeast 520 598 35,000  Level Anchorage Center
Mon 09:40:12 AM 60.3167 -143.0667 117° Southeast 520 598 35,000  Level Anchorage Center
Mon 09:41:13 AM 60.2833 -142.8333 106° East 500 575 35,000  Level Anchorage Center
Mon 09:42:13 AM 60.2167 -142.5833 118° Southeast 510 587 35,000  Level Anchorage Center
Mon 09:43:13 AM 60.1500 -142.3167 117° Southeast 500 575 35,000  Level Anchorage Center
Mon 09:44:13 AM 60.1000 -142.0500 111° Southeast 510 587 35,000  Level Anchorage Center
Mon 09:45:13 AM 60.0333 -141.8000 118° Southeast 510 587 35,000  Level Anchorage Center
Mon 09:46:13 AM 59.9833 -141.5333 110° East 510 587 35,000  Level Anchorage Center
Mon 09:47:13 AM 59.9167 -141.2833 118° Southeast 510 587 35,000  Level Anchorage Center
Mon 09:48:13 AM 59.8500 -141.0333 118° Southeast 510 587 35,000  Level Anchorage Center
Mon 09:49:13 AM 59.7833 -140.7833 118° Southeast 500 575 35,000  Level Anchorage Center
Mon 09:50:13 AM 59.7333 -140.5167 110° East 500 575 35,000  Level Anchorage Center
Mon 09:51:14 AM 59.6667 -140.2833 119° Southeast 500 575 35,000  Level Anchorage Center
Mon 09:52:14 AM 59.6000 -140.0333 118° Southeast 500 575 35,000  Level Anchorage Center
Mon 09:53:14 AM 59.5333 -139.7500 115° Southeast 500 575 35,000  Level Anchorage Center
Mon 09:54:14 AM 59.4833 -139.5000 111° Southeast 500 575 35,000  Level Anchorage Center
Mon 09:55:14 AM 59.4500 -139.2333 104° East 500 575 35,000  Level Anchorage Center
Mon 09:56:14 AM 59.4333 -138.9667 97° East 490 564 35,000  Level Anchorage Center
Mon 09:57:14 AM 59.4000 -138.7167 105° East 480 552 35,000  Level Anchorage Center
Mon 09:58:14 AM 59.3667 -138.4500 104° East 490 564 35,000  Level Anchorage Center
Mon 09:59:14 AM 59.3333 -138.1833 104° East 480 552 35,000  Level Anchorage Center
Mon 10:00:14 AM 59.3000 -137.9167 104° East 500 575 35,000  Level Anchorage Center
Mon 10:01:14 AM 59.2667 -137.6667 105° East 500 575 35,000  Level Anchorage Center
Mon 10:02:14 AM 59.2333 -137.4000 104° East 500 575 35,000  Level Anchorage Center
Mon 10:03:15 AM 59.2000 -137.1333 104° East 490 564 35,000  Level Anchorage Center
Mon 10:04:15 AM 59.1667 -136.8833 104° East 490 564 35,000  Level Anchorage Center
Mon 10:05:15 AM 59.1333 -136.6167 104° East 500 575 35,000  Level Anchorage Center
Mon 10:06:15 AM 59.1000 -136.3500 104° East 500 575 35,000  Level Anchorage Center
Mon 10:07:15 AM 59.0500 -136.1000 111° Southeast 490 564 35,000  Level Anchorage Center
Mon 10:08:15 AM 59.0167 -135.8500 104° East 490 564 35,000  Level Anchorage Center
Mon 10:09:15 AM 58.9833 -135.5833 104° East 500 575 35,000  Level Anchorage Center
Mon 10:10:16 AM 58.9500 -135.3167 104° East 490 564 35,000  Level Anchorage Center
Mon 10:11:16 AM 58.9000 -135.0667 111° Southeast 500 575 35,000  Level Anchorage Center
Mon 10:12:16 AM 58.8667 -134.8167 104° East 490 564 35,000  Level Anchorage Center
Mon 10:13:16 AM 58.8333 -134.5500 103° East 500 575 35,000  Level Anchorage Center
Mon 10:14:16 AM 58.7833 -134.3000 111° Southeast 490 564 35,000  Level Anchorage Center
Mon 10:15:16 AM 58.7500 -134.0500 104° East 490 564 35,000  Level Anchorage Center
Mon 10:17:00 AM 58.6845 -133.6223 108° East  Level FlightAware Approximate
Mon 10:24:00 AM 58.3883 -131.9223 108° East  Level FlightAware Approximate
Mon 10:25:00 AM 58.3442 -131.6819 109° East  Level FlightAware Approximate
Mon 10:26:00 AM 58.2995 -131.4421 110° East  Level FlightAware Approximate
Mon 10:27:00 AM 58.2540 -131.2031 110° East  Level FlightAware Approximate
Mon 10:28:00 AM 58.2081 -130.9647 110° East  Level FlightAware Approximate
Mon 10:29:00 AM 58.1618 -130.7270 110° East  Level FlightAware Approximate
Mon 10:30:00 AM 58.1151 -130.4898 110° East  Level FlightAware Approximate
Mon 10:31:00 AM 58.0678 -130.2533 111° Southeast  Level FlightAware Approximate
Mon 10:32:00 AM 58.0202 -130.0174 111° Southeast  Level FlightAware Approximate
Mon 10:33:00 AM 57.9737 -129.7811 110° East  Level FlightAware Approximate
Mon 10:34:00 AM 57.9268 -129.5453 110° East  Level FlightAware Approximate
Mon 10:35:00 AM 57.8795 -129.3101 111° Southeast  Level FlightAware Approximate
Mon 10:36:00 AM 57.8317 -129.0755 112° Southeast  Level FlightAware Approximate
Mon 10:37:00 AM 57.7822 -128.8425 112° Southeast  Level FlightAware Approximate
Mon 10:38:00 AM 57.7324 -128.6102 112° Southeast  Level FlightAware Approximate
Mon 10:39:00 AM 57.6821 -128.3784 112° Southeast  Level FlightAware Approximate
Mon 10:40:00 AM 57.6314 -128.1473 112° Southeast  Level FlightAware Approximate
Mon 10:41:00 AM 57.5802 -127.9169 112° Southeast  Level FlightAware Approximate
Mon 10:42:00 AM 57.5286 -127.6871 113° Southeast  Level FlightAware Approximate
Mon 10:43:00 AM 57.4767 -127.4580 113° Southeast  Level FlightAware Approximate
Mon 10:44:00 AM 57.4243 -127.2295 113° Southeast  Level FlightAware Approximate
Mon 10:45:00 AM 57.3715 -127.0017 113° Southeast  Level FlightAware Approximate
Mon 10:46:00 AM 57.3183 -126.7745 113° Southeast  Level FlightAware Approximate
Mon 10:47:00 AM 57.2647 -126.5480 114° Southeast  Level FlightAware Approximate
Mon 10:48:00 AM 57.2107 -126.3221 114° Southeast  Level FlightAware Approximate
Mon 10:49:00 AM 57.1563 -126.0969 114° Southeast  Level FlightAware Approximate
Mon 10:50:00 AM 57.1015 -125.8723 114° Southeast  Level FlightAware Approximate
Mon 10:51:00 AM 57.0463 -125.6484 114° Southeast  Level FlightAware Approximate
Mon 10:51:39 AM 56.9500 -125.3667 115° Southeast 490 564 35,000  Level Edmonton Center
Mon 10:52:00 AM 56.9907 -125.4252 114° Southeast  Level FlightAware Approximate
Mon 10:52:39 AM 56.8833 -125.1333 118° Southeast 490 564 35,000  Level Edmonton Center
Mon 10:53:00 AM 56.9348 -125.2026 115° Southeast  Level FlightAware Approximate
Mon 10:53:39 AM 56.8333 -124.9167 113° Southeast 490 564 35,000  Level Edmonton Center
Mon 10:54:00 AM 56.8785 -124.9807 115° Southeast  Level FlightAware Approximate
Mon 10:55:00 AM 56.8227 -124.7586 115° Southeast  Level FlightAware Approximate
Mon 10:56:00 AM 56.7665 -124.5373 115° Southeast  Level FlightAware Approximate
Mon 10:57:00 AM 56.7099 -124.3166 115° Southeast  Level FlightAware Approximate
Mon 10:59:57 AM 56.4880 -123.4300 113° Southeast 495 570 35,000  Level FlightAware ADS-B
Mon 11:00:37 AM 56.4480 -123.2840 116° Southeast 496 571 35,000  Level FlightAware ADS-B
Mon 11:01:17 AM 56.4110 -123.1470 116° Southeast 493 567 35,000  Level FlightAware ADS-B
Mon 11:02:02 AM 56.3630 -122.9730 116° Southeast 492 566 35,000  Level FlightAware ADS-B
Mon 11:02:47 AM 56.3170 -122.8070 116° Southeast 492 566 35,000  Level FlightAware ADS-B
Mon 11:03:32 AM 56.2750 -122.6550 116° Southeast 491 565 35,000  Level FlightAware ADS-B
Mon 11:04:17 AM 56.2320 -122.5000 116° Southeast 491 565 35,000  Level FlightAware ADS-B
Mon 11:04:57 AM 56.1980 -122.3760 116° Southeast 491 565 35,000  Level FlightAware ADS-B
Mon 11:05:37 AM 56.1640 -122.2510 116° Southeast 491 565 35,000  Level FlightAware ADS-B
Mon 11:06:17 AM 56.1300 -122.1260 116° Southeast 491 565 35,000  Level FlightAware ADS-B
Mon 11:06:57 AM 56.0970 -122.0020 115° Southeast 491 565 35,000  Level FlightAware ADS-B
Mon 11:07:47 AM 56.0540 -121.8460 116° Southeast 491 565 35,000  Level FlightAware ADS-B
Mon 11:08:27 AM 56.0200 -121.7220 116° Southeast 491 565 35,000  Level FlightAware ADS-B
Mon 11:09:07 AM 55.9860 -121.5980 116° Southeast 491 565 35,000  Level FlightAware ADS-B
Mon 11:09:47 AM 55.9530 -121.4740 115° Southeast 491 565 35,000  Level FlightAware ADS-B
Mon 11:10:37 AM 55.9100 -121.3190 116° Southeast 491 565 35,000  Level FlightAware ADS-B
Mon 11:11:17 AM 55.8760 -121.1950 116° Southeast 491 565 35,000  Level FlightAware ADS-B
Mon 11:11:57 AM 55.8420 -121.0710 116° Southeast 491 565 35,000  Level FlightAware ADS-B
Mon 11:12:37 AM 55.8090 -120.9480 115° Southeast 491 565 35,000  Level FlightAware ADS-B
Mon 11:13:27 AM 55.7660 -120.7940 116° Southeast 491 565 35,000  Level FlightAware ADS-B
Mon 11:14:39 AM 55.5500 -120.3167 116° Southeast 490 564 35,000  Level Edmonton Center
Mon 11:15:39 AM 55.4833 -120.1000 118° Southeast 490 564 35,000  Level Edmonton Center
Mon 11:16:39 AM 55.4167 -119.9000 120° Southeast 490 564 35,000  Level Edmonton Center
Mon 11:17:39 AM 55.3333 -119.6833 124° Southeast 490 564 35,000  Level Edmonton Center
Mon 11:18:39 AM 55.2833 -119.4833 114° Southeast 490 564 35,000  Level Edmonton Center
Mon 11:19:39 AM 55.2000 -119.2667 124° Southeast 490 564 35,000  Level Edmonton Center
Mon 11:20:39 AM 55.1333 -119.0667 120° Southeast 480 552 35,000  Level Edmonton Center
Mon 11:21:39 AM 55.0833 -118.8500 112° Southeast 480 552 35,000  Level Edmonton Center
Mon 11:27:37 AM 54.6680 -117.6110 112° Southeast 499 574 35,000  Level FlightAware ADS-B
Mon 11:28:37 AM 54.5920 -117.4040 122° Southeast 495 570 35,000  Level FlightAware ADS-B
Mon 11:29:32 AM 54.5240 -117.2200 122° Southeast 497 572 35,000  Level FlightAware ADS-B
Mon 11:30:07 AM 54.4820 -117.1100 123° Southeast 499 574 35,000  Level FlightAware ADS-B
Mon 11:30:47 AM 54.4370 -116.9890 123° Southeast 500 575 35,000  Level FlightAware ADS-B
Mon 11:31:32 AM 54.3740 -116.8220 123° Southeast 499 574 35,000  Level FlightAware ADS-B
Mon 11:32:12 AM 54.3230 -116.6890 123° Southeast 498 573 35,000  Level FlightAware ADS-B
Mon 11:32:52 AM 54.2740 -116.5590 123° Southeast 499 574 35,000  Level FlightAware ADS-B
Mon 11:33:37 AM 54.2190 -116.4160 123° Southeast 499 574 35,000  Level FlightAware ADS-B
Mon 11:34:07 AM 54.1800 -116.3160 124° Southeast 499 574 35,000  Level FlightAware ADS-B
Mon 11:34:47 AM 54.1320 -116.1920 123° Southeast 498 573 35,000  Level FlightAware ADS-B
Mon 11:35:32 AM 54.0780 -116.0520 123° Southeast 497 572 35,000  Level FlightAware ADS-B
Mon 11:36:12 AM 54.0220 -115.9110 124° Southeast 495 570 35,000  Level FlightAware ADS-B
Mon 11:36:57 AM 53.9650 -115.7650 124° Southeast 493 567 35,000  Level FlightAware ADS-B
Mon 11:37:37 AM 53.9150 -115.6390 124° Southeast 492 566 35,000 1,125 Level FlightAware ADS-B
Mon 11:38:17 AM 53.8630 -115.5070 124° Southeast 479 551 36,500 1,412 Climbing FlightAware ADS-B
Mon 11:39:02 AM 53.8070 -115.3690 124° Southeast 480 552 37,000 353 Climbing FlightAware ADS-B
Mon 11:39:42 AM 53.7580 -115.2470 124° Southeast 482 555 37,000  Level FlightAware ADS-B
Mon 11:40:27 AM 53.7060 -115.1170 124° Southeast 487 560 37,000  Level FlightAware ADS-B
Mon 11:41:02 AM 53.6570 -114.9980 125° Southeast 485 558 37,000  Level FlightAware ADS-B
Mon 11:41:47 AM 53.5980 -114.8550 125° Southeast 486 559 37,000  Level FlightAware ADS-B
Mon 11:42:32 AM 53.5410 -114.7150 124° Southeast 485 558 37,000  Level FlightAware ADS-B
Mon 11:43:12 AM 53.4890 -114.5890 125° Southeast 485 558 37,000  Level FlightAware ADS-B
Mon 11:43:57 AM 53.4320 -114.4520 125° Southeast 483 556 37,000  Level FlightAware ADS-B
Mon 11:44:37 AM 53.3810 -114.3290 125° Southeast 481 554 37,000  Level FlightAware ADS-B
Mon 11:45:12 AM 53.3350 -114.2210 125° Southeast 483 556 37,000  Level FlightAware ADS-B
Mon 11:45:52 AM 53.2830 -114.0960 125° Southeast 481 554 37,000  Level FlightAware ADS-B
Mon 11:46:32 AM 53.2300 -113.9720 125° Southeast 482 555 37,000  Level FlightAware ADS-B
Mon 11:47:17 AM 53.1790 -113.8300 121° Southeast 490 564 37,000  Level FlightAware ADS-B
Mon 11:48:02 AM 53.1410 -113.6740 112° Southeast 492 566 37,000  Level FlightAware ADS-B
Mon 11:48:37 AM 53.1120 -113.5470 111° Southeast 492 566 37,000  Level FlightAware ADS-B
Mon 11:49:22 AM 53.0760 -113.3910 111° Southeast 487 560 37,000  Level FlightAware ADS-B
Mon 11:50:02 AM 53.0430 -113.2500 111° Southeast 487 560 37,000  Level FlightAware ADS-B
Mon 11:50:37 AM 53.0140 -113.1290 112° Southeast 490 564 37,000  Level FlightAware ADS-B
Mon 11:51:22 AM 52.9760 -112.9700 112° Southeast 491 565 37,000  Level FlightAware ADS-B
Mon 11:52:47 AM 52.9090 -112.6890 111° Southeast 490 564 37,000  Level FlightAware ADS-B
Mon 11:54:02 AM 52.8460 -112.4300 112° Southeast 483 556 37,000  Level FlightAware ADS-B
Mon 11:55:12 AM 52.7880 -112.1920 112° Southeast 480 552 37,000  Level FlightAware ADS-B
Mon 11:56:22 AM 52.7280 -111.9530 112° Southeast 483 556 37,000  Level FlightAware ADS-B
Mon 11:57:07 AM 52.6890 -111.7980 112° Southeast 483 556 37,000  Level FlightAware ADS-B
Mon 11:57:37 AM 52.6630 -111.6930 112° Southeast 483 556 37,000  Level FlightAware ADS-B
Mon 11:58:17 AM 52.6280 -111.5550 113° Southeast 479 551 37,000  Level FlightAware ADS-B
Mon 11:58:57 AM 52.5940 -111.4220 113° Southeast 478 550 37,000  Level FlightAware ADS-B
Mon 11:59:42 AM 52.5550 -111.2700 113° Southeast 476 548 37,000  Level FlightAware ADS-B
Mon 12:00:22 PM 52.5200 -111.1340 113° Southeast 476 548 37,000  Level FlightAware ADS-B
Mon 12:01:02 PM 52.4880 -111.0120 113° Southeast 475 547 37,000  Level FlightAware ADS-B
Mon 12:01:42 PM 52.4590 -110.8920 112° Southeast 475 547 37,000  Level FlightAware ADS-B
Mon 12:02:17 PM 52.4190 -110.7480 114° Southeast 480 552 37,000  Level FlightAware ADS-B
Mon 12:03:02 PM 52.3840 -110.6140 113° Southeast 480 552 37,000  Level FlightAware ADS-B
Mon 12:03:52 PM 52.3480 -110.4720 112° Southeast 480 552 37,000  Level FlightAware ADS-B
Mon 12:04:32 PM 52.3180 -110.3580 113° Southeast 480 552 37,000  Level FlightAware ADS-B
Mon 12:05:12 PM 52.2890 -110.2450 113° Southeast 480 552 37,000  Level FlightAware ADS-B
Mon 12:05:52 PM 52.2590 -110.1310 113° Southeast 480 552 37,000  Level FlightAware ADS-B
Mon 12:06:42 PM 52.2220 -109.9890 113° Southeast 480 552 37,000  Level FlightAware ADS-B
Mon 12:07:22 PM 52.1930 -109.8760 113° Southeast 480 552 37,000  Level FlightAware ADS-B
Mon 12:08:02 PM 52.1630 -109.7620 113° Southeast 480 552 37,000  Level FlightAware ADS-B
Mon 12:08:42 PM 52.1340 -109.6490 113° Southeast 480 552 37,000  Level FlightAware ADS-B
Mon 12:09:22 PM 52.1040 -109.5360 113° Southeast 480 552 37,000  Level FlightAware ADS-B
Mon 12:10:02 PM 52.0750 -109.4230 113° Southeast 480 552 37,000  Level FlightAware ADS-B
Mon 12:10:52 PM 52.0380 -109.2820 113° Southeast 480 552 37,000  Level FlightAware ADS-B
Mon 12:11:32 PM 52.0080 -109.1690 113° Southeast 480 552 37,000  Level FlightAware ADS-B
Mon 12:12:12 PM 51.9790 -109.0560 113° Southeast 480 552 37,000  Level FlightAware ADS-B
Mon 12:12:39 PM 51.8333 -108.7167 113° Southeast 470 541 37,000  Level Edmonton Center
Mon 12:18:47 PM 51.5450 -107.6460 113° Southeast 465 535 37,000  Level FlightAware ADS-B
Mon 12:19:22 PM 51.5110 -107.5330 116° Southeast 467 537 37,000  Level FlightAware ADS-B
Mon 12:20:17 PM 51.4630 -107.3730 116° Southeast 464 534 37,000  Level FlightAware ADS-B
Mon 12:21:07 PM 51.4180 -107.2290 117° Southeast 457 526 37,000  Level FlightAware ADS-B
Mon 12:21:42 PM 51.3850 -107.1200 116° Southeast 457 526 37,000  Level FlightAware ADS-B
Mon 12:22:22 PM 51.3450 -106.9910 116° Southeast 456 525 37,000  Level FlightAware ADS-B
Mon 12:23:12 PM 51.2950 -106.8290 116° Southeast 454 522 37,000  Level FlightAware ADS-B
Mon 12:23:47 PM 51.2650 -106.7340 117° Southeast 453 521 37,000  Level FlightAware ADS-B
Mon 12:24:27 PM 51.2280 -106.6150 116° Southeast 454 522 37,000  Level FlightAware ADS-B
Mon 12:25:17 PM 51.1850 -106.4800 117° Southeast 455 524 37,000  Level FlightAware ADS-B
Mon 12:26:02 PM 51.1340 -106.3170 116° Southeast 457 526 37,000  Level FlightAware ADS-B
Mon 12:26:42 PM 51.0970 -106.2020 117° Southeast 456 525 37,000  Level FlightAware ADS-B
Mon 12:27:22 PM 51.0550 -106.0730 117° Southeast 454 522 37,000  Level FlightAware ADS-B
Mon 12:28:07 PM 51.0090 -105.9580 122° Southeast 452 520 37,000  Level FlightAware ADS-B
Mon 12:29:02 PM 50.9450 -105.7990 123° Southeast 454 522 37,000  Level FlightAware ADS-B
Mon 12:29:42 PM 50.9010 -105.6860 122° Southeast 456 525 37,000  Level FlightAware ADS-B
Mon 12:30:22 PM 50.8590 -105.5770 121° Southeast 456 525 37,000  Level FlightAware ADS-B
Mon 12:31:12 PM 50.8050 -105.4380 122° Southeast 456 525 37,000  Level FlightAware ADS-B
Mon 12:31:52 PM 50.7610 -105.3280 122° Southeast 458 527 37,000  Level FlightAware ADS-B
Mon 12:32:32 PM 50.7130 -105.2060 122° Southeast 460 529 37,000  Level FlightAware ADS-B
Mon 12:33:17 PM 50.6560 -105.0630 122° Southeast 461 531 37,000  Level FlightAware ADS-B
Mon 12:33:52 PM 50.6140 -104.9590 122° Southeast 462 532 37,000  Level FlightAware ADS-B
Mon 12:34:37 PM 50.5630 -104.8340 123° Southeast 463 533 37,000  Level FlightAware ADS-B
Mon 12:35:22 PM 50.5050 -104.6920 123° Southeast 464 534 37,000  Level FlightAware ADS-B
Mon 12:36:02 PM 50.4640 -104.5920 123° Southeast 461 531 37,000  Level FlightAware ADS-B
Mon 12:36:42 PM 50.4210 -104.4900 123° Southeast 460 529 37,000  Level FlightAware ADS-B
Mon 12:37:27 PM 50.3690 -104.3650 123° Southeast 459 528 37,000  Level FlightAware ADS-B
Mon 12:38:07 PM 50.3170 -104.2380 123° Southeast 459 528 37,000  Level FlightAware ADS-B
Mon 12:38:47 PM 50.2750 -104.1390 124° Southeast 460 529 37,000  Level FlightAware ADS-B
Mon 12:39:32 PM 50.2230 -104.0150 123° Southeast 461 531 37,000  Level FlightAware ADS-B
Mon 12:40:17 PM 50.1690 -103.8870 123° Southeast 459 528 37,000  Level FlightAware ADS-B
Mon 12:41:12 PM 50.1120 -103.7550 124° Southeast 454 522 37,000  Level FlightAware ADS-B
Mon 12:41:42 PM 50.0680 -103.6520 124° Southeast 450 518 37,000  Level FlightAware ADS-B
Mon 12:42:37 PM 50.0120 -103.5180 123° Southeast 450 518 37,000  Level FlightAware ADS-B
Mon 12:43:17 PM 49.9740 -103.4260 123° Southeast 450 518 37,000  Level FlightAware ADS-B
Mon 12:43:57 PM 49.9350 -103.3330 123° Southeast 450 518 37,000  Level FlightAware ADS-B
Mon 12:44:37 PM 49.8970 -103.2410 123° Southeast 450 518 37,000  Level FlightAware ADS-B
Mon 12:45:17 PM 49.8580 -103.1490 123° Southeast 450 518 37,000  Level FlightAware ADS-B
Mon 12:46:07 PM 49.7400 -102.8960 126° Southeast 446 513 37,000  Level FlightAware ADS-B
Mon 12:46:47 PM 49.6950 -102.7930 124° Southeast 445 512 37,000  Level FlightAware ADS-B
Mon 12:47:22 PM 49.6520 -102.6970 125° Southeast 445 512 37,000  Level FlightAware ADS-B
Mon 12:48:12 PM 49.5940 -102.5660 124° Southeast 445 512 37,000  Level FlightAware ADS-B
Mon 12:48:52 PM 49.5470 -102.4610 125° Southeast 442 509 37,000  Level FlightAware ADS-B
Mon 12:49:37 PM 49.4970 -102.3500 125° Southeast 444 511 37,000  Level FlightAware ADS-B
Mon 12:50:17 PM 49.4500 -102.2460 125° Southeast 446 513 37,000  Level FlightAware ADS-B
Mon 12:50:57 PM 49.4020 -102.1390 125° Southeast 448 516 37,000  Level FlightAware ADS-B
Mon 12:51:42 PM 49.3490 -102.0240 125° Southeast 446 513 37,000  Level FlightAware ADS-B
Mon 12:52:17 PM 49.3060 -101.9300 125° Southeast 445 512 37,000  Level FlightAware ADS-B
Mon 12:52:57 PM 49.2590 -101.8260 125° Southeast 444 511 37,000  Level FlightAware ADS-B
Mon 12:53:42 PM 49.2080 -101.7160 125° Southeast 442 509 37,000  Level FlightAware ADS-B
Mon 12:54:12 PM 49.1760 -101.6450 125° Southeast 441 507 37,000  Level FlightAware ADS-B
Mon 12:54:52 PM 49.1250 -101.5360 126° Southeast 441 507 37,000  Level FlightAware ADS-B
Mon 12:55:27 PM 49.0830 -101.4450 125° Southeast 441 507 37,000  Level FlightAware ADS-B
Mon 12:56:07 PM 49.0360 -101.3440 125° Southeast 443 510 37,000  Level FlightAware ADS-B
Mon 12:57:02 PM 48.9710 -101.2060 126° Southeast 444 511 37,000  Level FlightAware ADS-B
Mon 12:57:47 PM 48.9200 -101.0970 125° Southeast 442 509 37,000  Level FlightAware ADS-B
Mon 12:58:27 PM 48.8700 -100.9910 126° Southeast 439 505 37,000  Level FlightAware ADS-B
Mon 12:59:07 PM 48.8220 -100.8910 126° Southeast 437 503 37,000  Level FlightAware ADS-B
Mon 12:59:52 PM 48.7760 -100.7900 125° Southeast 437 503 37,000  Level FlightAware ADS-B
Mon 01:00:32 PM 48.7240 -100.6850 127° Southeast 433 498 37,000  Level FlightAware ADS-B
Mon 01:01:17 PM 48.6690 -100.5700 126° Southeast 433 498 37,000  Level FlightAware ADS-B
Mon 01:01:57 PM 48.6250 -100.4780 126° Southeast 434 499 37,000  Level FlightAware ADS-B
Mon 01:02:27 PM 48.5900 -100.4060 126° Southeast 436 502 37,000  Level FlightAware ADS-B
Mon 01:03:07 PM 48.5390 -100.3010 126° Southeast 439 505 37,000  Level FlightAware ADS-B
Mon 01:03:52 PM 48.4910 -100.2010 126° Southeast 438 504 37,000  Level FlightAware ADS-B
Mon 01:04:32 PM 48.4380 -100.0940 127° Southeast 443 510 37,000  Level FlightAware ADS-B
Mon 01:05:12 PM 48.3890 -99.9940 126° Southeast 444 511 37,000  Level FlightAware ADS-B
Mon 01:05:57 PM 48.3330 -99.8800 126° Southeast 445 512 37,000  Level FlightAware ADS-B
Mon 01:06:37 PM 48.2850 -99.7820 126° Southeast 444 511 37,000  Level FlightAware ADS-B
Mon 01:07:22 PM 48.2310 -99.6750 127° Southeast 444 511 37,000  Level FlightAware ADS-B
Mon 01:07:52 PM 48.1920 -99.5950 126° Southeast 444 511 37,000  Level FlightAware ADS-B
Mon 01:08:37 PM 48.1380 -99.4860 127° Southeast 443 510 37,000  Level FlightAware ADS-B
Mon 01:09:07 PM 48.1020 -99.4140 127° Southeast 440 506 37,000  Level FlightAware ADS-B
Mon 01:09:37 PM 48.0650 -99.3410 127° Southeast 439 505 37,000  Level FlightAware ADS-B
Mon 01:10:17 PM 48.0160 -99.2440 127° Southeast 439 505 37,000  Level FlightAware ADS-B
Mon 01:10:57 PM 47.9680 -99.1490 127° Southeast 438 504 37,000  Level FlightAware ADS-B
Mon 01:11:32 PM 47.9240 -99.0630 127° Southeast 439 505 37,000  Level FlightAware ADS-B
Mon 01:12:12 PM 47.8750 -98.9670 127° Southeast 440 506 37,000  Level FlightAware ADS-B
Mon 01:12:52 PM 47.8250 -98.8690 127° Southeast 441 507 37,000  Level FlightAware ADS-B
Mon 01:13:32 PM 47.7770 -98.7750 127° Southeast 439 505 37,000  Level FlightAware ADS-B
Mon 01:14:17 PM 47.7230 -98.6700 127° Southeast 438 504 37,000  Level FlightAware ADS-B
Mon 01:14:57 PM 47.6720 -98.5720 128° Southeast 439 505 37,000  Level FlightAware ADS-B
Mon 01:15:37 PM 47.6240 -98.4790 127° Southeast 439 505 37,000  Level FlightAware ADS-B
Mon 01:16:22 PM 47.5670 -98.3690 127° Southeast 437 503 37,000  Level FlightAware ADS-B
Mon 01:17:02 PM 47.5170 -98.2730 128° Southeast 437 503 37,000  Level FlightAware ADS-B
Mon 01:17:47 PM 47.4630 -98.1710 128° Southeast 437 503 37,000  Level FlightAware ADS-B
Mon 01:18:22 PM 47.4190 -98.0860 127° Southeast 437 503 37,000  Level FlightAware ADS-B
Mon 01:19:02 PM 47.3710 -97.9960 128° Southeast 437 503 37,000  Level FlightAware ADS-B
Mon 01:19:42 PM 47.3180 -97.8960 128° Southeast 437 503 37,000  Level FlightAware ADS-B
Mon 01:20:27 PM 47.2660 -97.7980 128° Southeast 436 502 37,000  Level FlightAware ADS-B
Mon 01:21:07 PM 47.2150 -97.7030 128° Southeast 435 501 37,000  Level FlightAware ADS-B
Mon 01:21:47 PM 47.1650 -97.6090 128° Southeast 436 502 37,000  Level FlightAware ADS-B
Mon 01:22:22 PM 47.1220 -97.5280 128° Southeast 435 501 37,000  Level FlightAware ADS-B
Mon 01:22:57 PM 47.0780 -97.4480 129° Southeast 434 499 37,000  Level FlightAware ADS-B
Mon 01:23:27 PM 47.0410 -97.3790 128° Southeast 434 499 37,000  Level FlightAware ADS-B
Mon 01:24:07 PM 46.9920 -97.2880 128° Southeast 434 499 37,000  Level FlightAware ADS-B
Mon 01:24:52 PM 46.9360 -97.1850 129° Southeast 435 501 37,000  Level FlightAware ADS-B
Mon 01:25:32 PM 46.8850 -97.0900 128° Southeast 436 502 37,000  Level FlightAware ADS-B
Mon 01:26:22 PM 46.8210 -96.9750 129° Southeast 438 504 37,000  Level FlightAware ADS-B
Mon 01:26:52 PM 46.7840 -96.9060 128° Southeast 439 505 37,000  Level FlightAware ADS-B
Mon 01:27:27 PM 46.7460 -96.8150 121° Southeast 442 509 37,000  Level FlightAware ADS-B
Mon 01:28:07 PM 46.7120 -96.7120 116° Southeast 442 509 37,000  Level FlightAware ADS-B
Mon 01:28:52 PM 46.6730 -96.5870 114° Southeast 444 511 37,000  Level FlightAware ADS-B
Mon 01:29:32 PM 46.6410 -96.4790 113° Southeast 444 511 37,000  Level FlightAware ADS-B
Mon 01:30:17 PM 46.6030 -96.3530 114° Southeast 445 512 37,000  Level FlightAware ADS-B
Mon 01:30:57 PM 46.5730 -96.2530 114° Southeast 444 511 37,000  Level FlightAware ADS-B
Mon 01:31:37 PM 46.5370 -96.1370 114° Southeast 447 514 37,000  Level FlightAware ADS-B
Mon 01:32:22 PM 46.5000 -96.0150 114° Southeast 448 516 37,000  Level FlightAware ADS-B
Mon 01:33:02 PM 46.4660 -95.9040 114° Southeast 448 516 37,000  Level FlightAware ADS-B
Mon 01:33:47 PM 46.4270 -95.7790 114° Southeast 447 514 37,000  Level FlightAware ADS-B
Mon 01:34:27 PM 46.3930 -95.6720 115° Southeast 444 511 37,000 -525 Level FlightAware ADS-B
Mon 01:35:07 PM 46.3560 -95.5660 117° Southeast 441 507 36,300 -1,200 Descending FlightAware ADS-B
Mon 01:35:57 PM 46.3050 -95.4370 120° Southeast 441 507 35,200 -1,412 Descending FlightAware ADS-B
Mon 01:36:32 PM 46.2700 -95.3500 120° Southeast 445 512 34,300 -1,875 Descending FlightAware ADS-B
Mon 01:37:17 PM 46.2210 -95.2310 121° Southeast 460 529 32,700 -1,765 Descending FlightAware ADS-B
Mon 01:37:57 PM 46.1780 -95.1250 120° Southeast 460 529 31,800 -1,275 Descending FlightAware ADS-B
Mon 01:38:37 PM 46.1350 -95.0190 120° Southeast 457 526 31,000 -1,360 Descending FlightAware ADS-B
Mon 01:39:12 PM 46.1000 -94.9320 120° Southeast 449 517 30,100 -1,875 Descending FlightAware ADS-B
Mon 01:39:57 PM 46.0510 -94.8130 121° Southeast 438 504 28,500 -1,516 Descending FlightAware ADS-B
Mon 01:40:47 PM 46.0050 -94.7010 121° Southeast 437 503 27,700 -2,211 Descending FlightAware ADS-B
Mon 01:41:32 PM 45.9580 -94.5870 121° Southeast 424 488 25,000 -2,965 Descending FlightAware ADS-B
Mon 01:42:12 PM 45.9180 -94.4890 120° Southeast 418 481 23,500 -2,259 Descending FlightAware ADS-B
Mon 01:42:57 PM 45.8720 -94.3800 121° Southeast 410 472 21,800 -2,188 Descending FlightAware ADS-B
Mon 01:43:37 PM 45.8350 -94.2900 121° Southeast 403 464 20,400 -2,100 Descending FlightAware ADS-B
Mon 01:44:17 PM 45.7970 -94.1990 121° Southeast 395 455 19,000 -1,875 Descending FlightAware ADS-B
Mon 01:44:57 PM 45.7600 -94.1100 121° Southeast 382 440 17,900 -1,835 Descending FlightAware ADS-B
Mon 01:45:42 PM 45.7180 -94.0100 121° Southeast 373 429 16,400 -1,906 Descending FlightAware ADS-B
Mon 01:46:22 PM 45.6830 -93.9280 121° Southeast 367 422 15,200 -1,875 Descending FlightAware ADS-B
Mon 01:47:02 PM 45.6470 -93.8440 121° Southeast 361 415 13,900 -1,906 Descending FlightAware ADS-B
Mon 01:47:47 PM 45.6090 -93.7540 121° Southeast 355 409 12,500 -1,467 Descending FlightAware ADS-B
Mon 01:48:32 PM 45.5720 -93.6660 121° Southeast 331 381 11,700 -776 Descending FlightAware ADS-B
Mon 01:49:12 PM 45.5410 -93.5970 123° Southeast 303 349 11,400 -545 Descending FlightAware ADS-B
Mon 01:49:27 PM 45.5260 -93.5790 140° Southeast 292 336 11,200 -764 Descending FlightAware ADS-B
Mon 01:50:07 PM 45.4770 -93.5560 162° South 274 315 10,700 -1,059 Descending FlightAware ADS-B
Mon 01:50:52 PM 45.4200 -93.5470 174° South 269 310 9,700 -1,286 Descending FlightAware ADS-B
Mon 01:51:17 PM 45.3900 -93.5420 173° South 268 308 9,200 -1,200 Descending FlightAware ADS-B
Mon 01:51:47 PM 45.3520 -93.5420 180° South 268 308 8,600 -1,200 Descending FlightAware ADS-B
Mon 01:52:02 PM 45.3340 -93.5430 182° South 267 307 8,300 -1,200 Descending FlightAware ADS-B
Mon 01:52:27 PM 45.3040 -93.5440 181° South 263 303 7,800 -982 Descending FlightAware ADS-B
Mon 01:52:57 PM 45.2670 -93.5450 181° South 260 299 7,400 -545 Descending FlightAware ADS-B
Mon 01:53:22 PM 45.2380 -93.5470 183° South 256 295 7,300 -109 Descending FlightAware ADS-B
Mon 01:53:52 PM 45.2030 -93.5480 181° South 229 264 7,300 -500 Level FlightAware ADS-B
Mon 01:54:22 PM 45.1720 -93.5530 186° South 216 249 6,800 -1,091 Descending FlightAware ADS-B
Mon 01:54:47 PM 45.1500 -93.5660 203° Southwest 215 247 6,300 -1,091 Descending FlightAware ADS-B
Mon 01:55:17 PM 45.1220 -93.5830 203° Southwest 208 239 5,800 -873 Descending FlightAware ADS-B
Mon 01:55:42 PM 45.1020 -93.5950 203° Southwest 187 215 5,500 -873 Descending FlightAware ADS-B
Mon 01:56:12 PM 45.0790 -93.6070 200° South 163 188 5,000 -982 Descending FlightAware ADS-B
Mon 01:56:37 PM 45.0620 -93.5990 162° South 159 183 4,600 -1,029 Descending FlightAware ADS-B
Mon 01:56:47 PM 45.0550 -93.5930 149° Southeast 163 188 4,400 -720 Descending FlightAware ADS-B
Mon 01:57:02 PM 45.0480 -93.5810 130° Southeast 170 196 4,300  Descending FlightAware ADS-B
Mon 01:57:27 PM 45.0380 -93.5580 122° Southeast 173 199 4,400 109 Climbing FlightAware ADS-B
Mon 01:57:57 PM 45.0250 -93.5280 122° Southeast 169 194 4,400  Level FlightAware ADS-B
Mon 01:58:12 PM 45.0190 -93.5140 121° Southeast 170 196 4,400  Level FlightAware ADS-B
Mon 01:58:42 PM 45.0070 -93.4850 120° Southeast 172 198 4,400  Level FlightAware ADS-B
Mon 01:59:07 PM 44.9970 -93.4620 122° Southeast 177 204 4,400  Level FlightAware ADS-B
Mon 01:59:27 PM 44.9880 -93.4420 122° Southeast 177 204 4,400  Level FlightAware ADS-B
Mon 01:59:47 PM 44.9790 -93.4220 122° Southeast 177 204 4,400 -533 Level FlightAware ADS-B
Mon 02:00:12 PM 44.9680 -93.3960 121° Southeast 179 206 4,000 -840 Descending FlightAware ADS-B
Mon 02:00:37 PM 44.9580 -93.3720 120° Southeast 169 194 3,700 -840 Descending FlightAware ADS-B
Mon 02:01:02 PM 44.9480 -93.3480 120° Southeast 162 186 3,300 -900 Descending FlightAware ADS-B
Mon 02:01:17 PM 44.9430 -93.3360 120° Southeast 160 184 3,100 -933 Descending FlightAware ADS-B
Mon 02:01:47 PM 44.9310 -93.3090 122° Southeast 154 177 2,600 -800 Descending FlightAware ADS-B
Mon 02:02:17 PM 44.9200 -93.2850 123° Southeast 141 162 2,300 -655 Descending FlightAware ADS-B
Mon 02:02:42 PM 44.9120 -93.2650 119° Southeast 145 167 2,000 -873 Descending FlightAware ADS-B
Mon 02:03:12 PM 44.9010 -93.2400 122° Southeast 144 166 1,500 -873 Descending FlightAware ADS-B
Mon 02:03:37 PM 44.8930 -93.2220 122° Southeast 146 168 1,200 -720 Descending FlightAware ADS-B

Login

Don't have an account? Register now (free) for customized features, flight alerts, and more!